Portada
METAR-TAF:

METAR-TAF

Aeroports :

Fourchambault

Nevers, França

latitud: 47-00N, longitud: 003-06E, altitud: 180 m

Observació

L'informe es va fer fa 35 minuts, a les 14:00 UTC
Vent 15 kt del Oest, variant entre Oest/Sud-Oest i Nord-Oest
Temperatura 8°C
Humitat 57%
Pressió 1012 hPa
Visibilitat 10 km o més
Cel ennuvolat a una alçada de 4100 ft
Cel ennuvolat a una alçada de 4900 ft
Cel ennuvolat a una alçada de 6800 ft

METAR: LFQG 261400Z AUTO 28015KT 240V310 9999 BKN041 BKN049 BKN068 08/M00 Q1012

Hora: 15:35 (14:35 UTC)


TAF: manca

Observacions i pronòstics meteorològics de més de 4000 aeroports (METAR i TAF).

Les estacions disponibles són els punts grocs i vermells al mapa.

Posi el ratolí al punt desitjat per veure el nom de l'estació.

Feu clic per veure les observacions i els pronòstics meteorològics.

Per canviar el mapa: feu clic els botons verds amb una creu de color negre per apropar; al botó verd amb un guió per allunyar la imatge; o en les fletxes verdes per a mapes adjacents.


METAR-TAF: